Terminal Aerodrome Forecast
Issued by NWS

Current Version | Previous Version | Text Only | Print | Product List | Glossary Off
Versions: 1 2 3 4 5 6 7 8 9 10 11 12 13 14 15 16 17 18 19 20 21 22

488
FTUS41 KILN 191511 AAB
TAFLCK
TAF AMD
KLCK 191511Z 1915/2012 26005KT 5SM BR OVC008
     FM191800 26006KT P6SM FEW025 SCT050
     FM192100 26006KT P6SM FEW025 SCT200
     FM200400 00000KT P6SM SCT150=

USA.gov is the U.S. government's official web portal to all federal, state and local government web resources and services.